Skykomish, WA (98288)

11:22 AM PDT on March 25, 2017 (GMT -0700)
MSVNW1 | | Change Station

Elev 3949 ft 47.75 °N, 121.09 °W | Updated 7 hours ago

Rain
Rain
32.0 °F
Feels Like 32 °F
N
-
Wind Variable Wind from North

Today
High -- | Low -- °F
--% Chance of Precip.
Yesterday
High -- | Low -- °F
Precip. -- in
Pressure 30.14 in
Visibility 10.0 miles
Clouds Few 2400 ft
Overcast 6500 ft
Windchill 32 °F
Dew Point Not available.
Humidity Not available.
Rainfall 0.22 in
Snow Depth Not available.
6:57 AM 7:25 PM
Waning Crescent, 7% visible
METAR KRNT 251753Z 17010KT 10SM FEW024 OVC065 10/05 A3012 RMK AO2 SLP205 T01000050 10100 20067 53006
Pressure 30.14 in
Visibility 10.0 miles
Clouds Few 2400 ft
Overcast 6500 ft
Windchill 32 °F
Dew Point Not available.
Humidity Not available.
Rainfall 0.22 in
Snow Depth Not available.
6:57 AM 7:25 PM
Waning Crescent, 7% visible
METAR KRNT 251753Z 17010KT 10SM FEW024 OVC065 10/05 A3012 RMK AO2 SLP205 T01000050 10100 20067 53006

Get Severe Weather Alerts

Thanks for signing up!

Be on the lookout for a verification email in your inbox.

You'll start receiving the daily forecast at 8 AM.

×

10-Day Weather Forecast

Almanac

Astronomy

Mar. 25, 2017 Rise Set
Actual Time
Civil Twilight
Nautical Twilight
Astronomical Twilight
Moon
Length of Visible Light
Length of Day
Tomorrow will be .
, % of the Moon is Illuminated

Today's Extremes

State Highs State Lows

Community

WunderPhotos

Upload Photos

1,962,540 photos uploaded!

WunderBlog® & News

Nearby

Air Quality

  Air Quality AQ Index Pollutant
Not available.

Snow Depth

Station Depth Elevation

Earthquake Activity

City Distance Mag. Time & Date
Minimum magnitude displayed is 2.5.

Earthquake Activity

City Distance Mag. Time & Date
Minimum magnitude displayed is 2.5.

Coastal Water Temperatures

Place Temperature

Stations

Nearby Weather Stations

Station Location Temp. Windchill Dew Point Humidity Wind Precip. Elev Updated Type
                   

Watches & Warnings

There are currently no watches in effect.